sensor_id;sensor_type;location;lat;lon;timestamp;temperature;humidity
16229;DHT22;8222;51.462;12.630;2023-06-10T00:01:59;19.70;99.90
16229;DHT22;8222;51.462;12.630;2023-06-10T00:04:27;19.60;99.90
16229;DHT22;8222;51.462;12.630;2023-06-10T00:06:55;19.50;99.90
16229;DHT22;8222;51.462;12.630;2023-06-10T00:09:27;19.40;99.90
16229;DHT22;8222;51.462;12.630;2023-06-10T00:11:54;19.30;99.90
16229;DHT22;8222;51.462;12.630;2023-06-10T00:14:20;19.30;99.90
16229;DHT22;8222;51.462;12.630;2023-06-10T00:16:48;19.20;99.90
16229;DHT22;8222;51.462;12.630;2023-06-10T00:19:19;19.30;99.90
16229;DHT22;8222;51.462;12.630;2023-06-10T00:21:51;19.20;99.90
16229;DHT22;8222;51.462;12.630;2023-06-10T00:24:17;19.00;99.90
16229;DHT22;8222;51.462;12.630;2023-06-10T00:26:45;19.10;99.90
16229;DHT22;8222;51.462;12.630;2023-06-10T00:29:11;19.20;99.90
16229;DHT22;8222;51.462;12.630;2023-06-10T00:31:45;19.00;99.90
16229;DHT22;8222;51.462;12.630;2023-06-10T00:34:12;19.00;99.90
16229;DHT22;8222;51.462;12.630;2023-06-10T00:36:37;19.00;99.90
16229;DHT22;8222;51.462;12.630;2023-06-10T00:39:06;18.90;99.90
16229;DHT22;8222;51.462;12.630;2023-06-10T00:41:37;19.00;99.90
16229;DHT22;8222;51.462;12.630;2023-06-10T00:44:03;18.90;99.90
16229;DHT22;8222;51.462;12.630;2023-06-10T00:46:31;18.80;99.90
16229;DHT22;8222;51.462;12.630;2023-06-10T00:48:58;18.70;99.90
16229;DHT22;8222;51.462;12.630;2023-06-10T00:51:25;18.70;99.90
16229;DHT22;8222;51.462;12.630;2023-06-10T00:53:52;18.70;99.90
16229;DHT22;8222;51.462;12.630;2023-06-10T00:56:20;18.60;99.90
16229;DHT22;8222;51.462;12.630;2023-06-10T00:58:49;18.60;99.90
16229;DHT22;8222;51.462;12.630;2023-06-10T01:03:53;18.50;99.90
16229;DHT22;8222;51.462;12.630;2023-06-10T01:12:19;18.50;99.90
16229;DHT22;8222;51.462;12.630;2023-06-10T01:14:46;18.50;99.90
16229;DHT22;8222;51.462;12.630;2023-06-10T01:17:14;18.30;99.90
16229;DHT22;8222;51.462;12.630;2023-06-10T01:19:41;18.20;99.90
16229;DHT22;8222;51.462;12.630;2023-06-10T01:22:09;18.20;99.90
16229;DHT22;8222;51.462;12.630;2023-06-10T01:24:36;18.20;99.90
16229;DHT22;8222;51.462;12.630;2023-06-10T01:27:12;18.20;99.90
16229;DHT22;8222;51.462;12.630;2023-06-10T01:29:47;18.10;99.90
16229;DHT22;8222;51.462;12.630;2023-06-10T01:32:26;18.00;99.90
16229;DHT22;8222;51.462;12.630;2023-06-10T01:34:59;18.00;99.90
16229;DHT22;8222;51.462;12.630;2023-06-10T01:37:27;17.80;99.90
16229;DHT22;8222;51.462;12.630;2023-06-10T01:40:00;17.80;99.90
16229;DHT22;8222;51.462;12.630;2023-06-10T01:42:32;17.70;99.90
16229;DHT22;8222;51.462;12.630;2023-06-10T01:45:00;17.60;99.90
16229;DHT22;8222;51.462;12.630;2023-06-10T01:47:26;17.70;99.90
16229;DHT22;8222;51.462;12.630;2023-06-10T01:49:54;17.60;99.90
16229;DHT22;8222;51.462;12.630;2023-06-10T01:52:19;17.50;99.90
16229;DHT22;8222;51.462;12.630;2023-06-10T01:54:47;17.50;99.90
16229;DHT22;8222;51.462;12.630;2023-06-10T01:57:16;17.40;99.90
16229;DHT22;8222;51.462;12.630;2023-06-10T01:59:47;17.30;99.90
16229;DHT22;8222;51.462;12.630;2023-06-10T02:02:14;17.40;99.90
16229;DHT22;8222;51.462;12.630;2023-06-10T02:04:43;17.50;99.90
16229;DHT22;8222;51.462;12.630;2023-06-10T02:07:09;17.40;99.90
16229;DHT22;8222;51.462;12.630;2023-06-10T02:09:34;17.30;99.90
16229;DHT22;8222;51.462;12.630;2023-06-10T02:12:04;17.30;99.90
16229;DHT22;8222;51.462;12.630;2023-06-10T02:14:33;17.20;99.90
16229;DHT22;8222;51.462;12.630;2023-06-10T02:16:59;17.30;99.90
16229;DHT22;8222;51.462;12.630;2023-06-10T02:19:24;17.10;99.90
16229;DHT22;8222;51.462;12.630;2023-06-10T02:21:52;17.00;99.90
16229;DHT22;8222;51.462;12.630;2023-06-10T02:24:19;17.10;99.90
16229;DHT22;8222;51.462;12.630;2023-06-10T02:26:44;17.00;99.90
16229;DHT22;8222;51.462;12.630;2023-06-10T02:29:10;16.90;99.90
16229;DHT22;8222;51.462;12.630;2023-06-10T02:31:38;17.00;99.90
16229;DHT22;8222;51.462;12.630;2023-06-10T02:34:07;16.90;99.90
16229;DHT22;8222;51.462;12.630;2023-06-10T02:36:35;17.00;99.90
16229;DHT22;8222;51.462;12.630;2023-06-10T02:39:01;16.90;99.90
16229;DHT22;8222;51.462;12.630;2023-06-10T02:41:28;16.80;99.90
16229;DHT22;8222;51.462;12.630;2023-06-10T02:43:58;16.70;99.90
16229;DHT22;8222;51.462;12.630;2023-06-10T02:46:24;16.60;99.90
16229;DHT22;8222;51.462;12.630;2023-06-10T02:48:54;16.50;99.90
16229;DHT22;8222;51.462;12.630;2023-06-10T02:51:19;16.40;99.90
16229;DHT22;8222;51.462;12.630;2023-06-10T02:53:48;16.40;99.90
16229;DHT22;8222;51.462;12.630;2023-06-10T02:56:16;16.30;99.90
16229;DHT22;8222;51.462;12.630;2023-06-10T02:58:44;16.20;99.90
16229;DHT22;8222;51.462;12.630;2023-06-10T03:01:12;16.10;99.90
16229;DHT22;8222;51.462;12.630;2023-06-10T03:03:40;16.30;99.90
16229;DHT22;8222;51.462;12.630;2023-06-10T03:06:10;16.20;99.90
16229;DHT22;8222;51.462;12.630;2023-06-10T03:08:36;16.30;99.90
16229;DHT22;8222;51.462;12.630;2023-06-10T03:11:03;16.40;99.90
16229;DHT22;8222;51.462;12.630;2023-06-10T03:13:31;16.40;99.90
16229;DHT22;8222;51.462;12.630;2023-06-10T03:15:57;16.40;99.90
16229;DHT22;8222;51.462;12.630;2023-06-10T03:18:26;16.40;99.90
16229;DHT22;8222;51.462;12.630;2023-06-10T03:20:52;16.40;99.90
16229;DHT22;8222;51.462;12.630;2023-06-10T03:23:21;16.40;99.90
16229;DHT22;8222;51.462;12.630;2023-06-10T03:25:47;16.60;99.90
16229;DHT22;8222;51.462;12.630;2023-06-10T03:28:14;16.70;99.90
16229;DHT22;8222;51.462;12.630;2023-06-10T03:30:40;16.80;99.90
16229;DHT22;8222;51.462;12.630;2023-06-10T03:33:08;16.90;99.90
16229;DHT22;8222;51.462;12.630;2023-06-10T03:35:36;16.90;99.90
16229;DHT22;8222;51.462;12.630;2023-06-10T03:38:02;17.00;99.90
16229;DHT22;8222;51.462;12.630;2023-06-10T03:40:35;17.00;99.90
16229;DHT22;8222;51.462;12.630;2023-06-10T03:43:00;17.10;99.90
16229;DHT22;8222;51.462;12.630;2023-06-10T03:45:28;17.20;99.90
16229;DHT22;8222;51.462;12.630;2023-06-10T03:47:57;17.20;99.90
16229;DHT22;8222;51.462;12.630;2023-06-10T03:50:25;17.10;99.90
16229;DHT22;8222;51.462;12.630;2023-06-10T03:52:55;17.10;99.90
16229;DHT22;8222;51.462;12.630;2023-06-10T03:55:21;17.20;99.90
16229;DHT22;8222;51.462;12.630;2023-06-10T03:57:47;17.30;99.90
16229;DHT22;8222;51.462;12.630;2023-06-10T04:00:16;17.20;99.90
16229;DHT22;8222;51.462;12.630;2023-06-10T04:02:43;17.30;99.90
16229;DHT22;8222;51.462;12.630;2023-06-10T04:05:17;17.30;99.90
16229;DHT22;8222;51.462;12.630;2023-06-10T04:07:43;17.40;99.90
16229;DHT22;8222;51.462;12.630;2023-06-10T04:10:10;17.30;99.90
16229;DHT22;8222;51.462;12.630;2023-06-10T04:12:42;17.30;99.90
16229;DHT22;8222;51.462;12.630;2023-06-10T04:15:10;17.30;99.90
16229;DHT22;8222;51.462;12.630;2023-06-10T04:17:38;17.20;99.90
16229;DHT22;8222;51.462;12.630;2023-06-10T04:20:04;17.30;99.90
16229;DHT22;8222;51.462;12.630;2023-06-10T04:22:33;17.30;99.90
16229;DHT22;8222;51.462;12.630;2023-06-10T04:25:01;17.30;99.90
16229;DHT22;8222;51.462;12.630;2023-06-10T04:27:29;17.30;99.90
16229;DHT22;8222;51.462;12.630;2023-06-10T04:30:00;17.40;99.90
16229;DHT22;8222;51.462;12.630;2023-06-10T04:32:28;17.40;99.90
16229;DHT22;8222;51.462;12.630;2023-06-10T04:34:54;17.30;99.90
16229;DHT22;8222;51.462;12.630;2023-06-10T04:37:19;17.30;99.90
16229;DHT22;8222;51.462;12.630;2023-06-10T04:39:45;17.30;99.90
16229;DHT22;8222;51.462;12.630;2023-06-10T04:42:13;17.30;99.90
16229;DHT22;8222;51.462;12.630;2023-06-10T04:44:39;17.30;99.90
16229;DHT22;8222;51.462;12.630;2023-06-10T04:47:05;17.30;99.90
16229;DHT22;8222;51.462;12.630;2023-06-10T04:49:34;17.40;99.90
16229;DHT22;8222;51.462;12.630;2023-06-10T04:52:00;17.40;99.90
16229;DHT22;8222;51.462;12.630;2023-06-10T04:54:28;17.40;99.90
16229;DHT22;8222;51.462;12.630;2023-06-10T04:56:54;17.60;99.90
16229;DHT22;8222;51.462;12.630;2023-06-10T04:59:22;17.60;99.90
16229;DHT22;8222;51.462;12.630;2023-06-10T05:01:48;17.70;99.90
16229;DHT22;8222;51.462;12.630;2023-06-10T05:04:13;18.00;99.90
16229;DHT22;8222;51.462;12.630;2023-06-10T05:06:44;18.00;99.90
16229;DHT22;8222;51.462;12.630;2023-06-10T05:09:12;17.80;99.90
16229;DHT22;8222;51.462;12.630;2023-06-10T05:11:37;17.80;99.90
16229;DHT22;8222;51.462;12.630;2023-06-10T05:14:03;17.90;99.90
16229;DHT22;8222;51.462;12.630;2023-06-10T05:16:29;18.00;99.90
16229;DHT22;8222;51.462;12.630;2023-06-10T05:18:55;18.00;99.90
16229;DHT22;8222;51.462;12.630;2023-06-10T05:21:20;17.90;99.90
16229;DHT22;8222;51.462;12.630;2023-06-10T05:23:49;18.00;99.90
16229;DHT22;8222;51.462;12.630;2023-06-10T05:26:19;18.20;99.90
16229;DHT22;8222;51.462;12.630;2023-06-10T05:28:47;18.30;99.90
16229;DHT22;8222;51.462;12.630;2023-06-10T05:31:13;18.30;99.90
16229;DHT22;8222;51.462;12.630;2023-06-10T05:33:39;18.40;99.90
16229;DHT22;8222;51.462;12.630;2023-06-10T05:36:05;18.50;99.90
16229;DHT22;8222;51.462;12.630;2023-06-10T05:38:33;18.50;99.90
16229;DHT22;8222;51.462;12.630;2023-06-10T05:40:58;18.60;99.90
16229;DHT22;8222;51.462;12.630;2023-06-10T05:43:26;18.70;99.90
16229;DHT22;8222;51.462;12.630;2023-06-10T05:45:52;18.60;99.90
16229;DHT22;8222;51.462;12.630;2023-06-10T05:48:18;18.60;99.90
16229;DHT22;8222;51.462;12.630;2023-06-10T05:50:45;18.70;99.90
16229;DHT22;8222;51.462;12.630;2023-06-10T05:53:16;18.80;99.90
16229;DHT22;8222;51.462;12.630;2023-06-10T05:55:45;19.10;99.90
16229;DHT22;8222;51.462;12.630;2023-06-10T05:58:12;19.10;99.90
16229;DHT22;8222;51.462;12.630;2023-06-10T06:00:41;19.20;99.90
16229;DHT22;8222;51.462;12.630;2023-06-10T06:03:09;19.20;99.90
16229;DHT22;8222;51.462;12.630;2023-06-10T06:05:36;19.30;99.90
16229;DHT22;8222;51.462;12.630;2023-06-10T06:08:04;19.40;99.90
16229;DHT22;8222;51.462;12.630;2023-06-10T06:10:32;19.50;99.90
16229;DHT22;8222;51.462;12.630;2023-06-10T06:12:58;19.50;99.90
16229;DHT22;8222;51.462;12.630;2023-06-10T06:15:24;19.60;99.90
16229;DHT22;8222;51.462;12.630;2023-06-10T06:17:49;19.60;99.90
16229;DHT22;8222;51.462;12.630;2023-06-10T06:20:18;19.60;99.90
16229;DHT22;8222;51.462;12.630;2023-06-10T06:22:46;19.60;99.90
16229;DHT22;8222;51.462;12.630;2023-06-10T06:25:12;19.90;99.90
16229;DHT22;8222;51.462;12.630;2023-06-10T06:27:38;20.00;99.90
16229;DHT22;8222;51.462;12.630;2023-06-10T06:30:08;20.10;99.90
16229;DHT22;8222;51.462;12.630;2023-06-10T06:32:33;20.20;99.90
16229;DHT22;8222;51.462;12.630;2023-06-10T06:35:01;20.50;99.90
16229;DHT22;8222;51.462;12.630;2023-06-10T06:37:33;20.60;99.90
16229;DHT22;8222;51.462;12.630;2023-06-10T06:40:02;20.80;99.90
16229;DHT22;8222;51.462;12.630;2023-06-10T06:42:30;20.90;99.90
16229;DHT22;8222;51.462;12.630;2023-06-10T06:44:56;21.00;99.90
16229;DHT22;8222;51.462;12.630;2023-06-10T06:47:22;21.00;99.90
16229;DHT22;8222;51.462;12.630;2023-06-10T06:49:48;20.90;99.90
16229;DHT22;8222;51.462;12.630;2023-06-10T06:52:15;20.70;99.90
16229;DHT22;8222;51.462;12.630;2023-06-10T06:54:43;20.90;99.90
16229;DHT22;8222;51.462;12.630;2023-06-10T06:57:08;21.00;99.90
16229;DHT22;8222;51.462;12.630;2023-06-10T06:59:34;21.10;99.90
16229;DHT22;8222;51.462;12.630;2023-06-10T07:02:00;21.20;99.90
16229;DHT22;8222;51.462;12.630;2023-06-10T07:04:25;21.20;99.90
16229;DHT22;8222;51.462;12.630;2023-06-10T07:06:51;21.30;99.90
16229;DHT22;8222;51.462;12.630;2023-06-10T07:09:17;21.30;99.90
16229;DHT22;8222;51.462;12.630;2023-06-10T07:11:42;21.40;99.90
16229;DHT22;8222;51.462;12.630;2023-06-10T07:14:10;21.50;99.90
16229;DHT22;8222;51.462;12.630;2023-06-10T07:16:36;21.70;99.90
16229;DHT22;8222;51.462;12.630;2023-06-10T07:19:02;22.00;99.90
16229;DHT22;8222;51.462;12.630;2023-06-10T07:21:29;22.30;99.90
16229;DHT22;8222;51.462;12.630;2023-06-10T07:23:55;22.40;99.90
16229;DHT22;8222;51.462;12.630;2023-06-10T07:29:19;22.60;99.90
16229;DHT22;8222;51.462;12.630;2023-06-10T07:31:45;22.70;99.90
16229;DHT22;8222;51.462;12.630;2023-06-10T07:34:12;22.80;99.90
16229;DHT22;8222;51.462;12.630;2023-06-10T07:36:38;22.70;99.90
16229;DHT22;8222;51.462;12.630;2023-06-10T07:39:04;22.60;99.90
16229;DHT22;8222;51.462;12.630;2023-06-10T07:41:35;22.60;99.90
16229;DHT22;8222;51.462;12.630;2023-06-10T07:44:03;22.80;99.90
16229;DHT22;8222;51.462;12.630;2023-06-10T07:46:29;22.90;99.90
16229;DHT22;8222;51.462;12.630;2023-06-10T07:48:55;23.10;99.90
16229;DHT22;8222;51.462;12.630;2023-06-10T07:51:23;23.30;99.90
16229;DHT22;8222;51.462;12.630;2023-06-10T07:53:49;23.40;99.90
16229;DHT22;8222;51.462;12.630;2023-06-10T07:56:15;23.40;99.90
16229;DHT22;8222;51.462;12.630;2023-06-10T07:58:40;23.40;99.90
16229;DHT22;8222;51.462;12.630;2023-06-10T08:01:06;23.50;99.90
16229;DHT22;8222;51.462;12.630;2023-06-10T08:03:32;23.40;99.90
16229;DHT22;8222;51.462;12.630;2023-06-10T08:05:58;23.40;99.90
16229;DHT22;8222;51.462;12.630;2023-06-10T08:08:26;23.50;99.90
16229;DHT22;8222;51.462;12.630;2023-06-10T08:10:54;23.80;99.90
16229;DHT22;8222;51.462;12.630;2023-06-10T08:13:20;24.10;99.90
16229;DHT22;8222;51.462;12.630;2023-06-10T08:15:48;24.20;99.90
16229;DHT22;8222;51.462;12.630;2023-06-10T08:18:15;24.30;99.90
16229;DHT22;8222;51.462;12.630;2023-06-10T08:20:44;24.30;99.90
16229;DHT22;8222;51.462;12.630;2023-06-10T08:23:09;24.40;99.90
16229;DHT22;8222;51.462;12.630;2023-06-10T08:25:35;24.40;99.90
16229;DHT22;8222;51.462;12.630;2023-06-10T08:28:01;24.50;99.90
16229;DHT22;8222;51.462;12.630;2023-06-10T08:30:26;24.50;99.90
16229;DHT22;8222;51.462;12.630;2023-06-10T08:32:52;24.60;99.90
16229;DHT22;8222;51.462;12.630;2023-06-10T08:35:18;24.50;99.90
16229;DHT22;8222;51.462;12.630;2023-06-10T08:37:43;24.50;99.90
16229;DHT22;8222;51.462;12.630;2023-06-10T08:40:11;24.50;99.90
16229;DHT22;8222;51.462;12.630;2023-06-10T08:42:48;24.40;99.90
16229;DHT22;8222;51.462;12.630;2023-06-10T08:45:17;24.50;99.90
16229;DHT22;8222;51.462;12.630;2023-06-10T08:47:46;24.60;99.90
16229;DHT22;8222;51.462;12.630;2023-06-10T08:50:16;24.80;99.90
16229;DHT22;8222;51.462;12.630;2023-06-10T08:52:44;24.90;99.90
16229;DHT22;8222;51.462;12.630;2023-06-10T08:55:23;24.90;99.90
16229;DHT22;8222;51.462;12.630;2023-06-10T08:57:54;25.10;99.90
16229;DHT22;8222;51.462;12.630;2023-06-10T09:00:20;25.20;99.90
16229;DHT22;8222;51.462;12.630;2023-06-10T09:02:55;25.60;99.90
16229;DHT22;8222;51.462;12.630;2023-06-10T09:05:21;26.00;99.90
16229;DHT22;8222;51.462;12.630;2023-06-10T09:07:48;26.10;99.90
16229;DHT22;8222;51.462;12.630;2023-06-10T09:10:16;26.40;99.90
16229;DHT22;8222;51.462;12.630;2023-06-10T09:12:42;26.40;99.90
16229;DHT22;8222;51.462;12.630;2023-06-10T09:15:08;26.60;99.90
16229;DHT22;8222;51.462;12.630;2023-06-10T09:17:40;26.80;99.90
16229;DHT22;8222;51.462;12.630;2023-06-10T09:20:12;26.70;99.90
16229;DHT22;8222;51.462;12.630;2023-06-10T09:22:42;26.60;99.90
16229;DHT22;8222;51.462;12.630;2023-06-10T09:25:10;27.00;99.90
16229;DHT22;8222;51.462;12.630;2023-06-10T09:27:56;27.10;99.90
16229;DHT22;8222;51.462;12.630;2023-06-10T09:30:40;27.10;99.90
16229;DHT22;8222;51.462;12.630;2023-06-10T09:33:13;27.20;99.90
16229;DHT22;8222;51.462;12.630;2023-06-10T09:35:49;27.20;99.90
16229;DHT22;8222;51.462;12.630;2023-06-10T09:38:22;27.00;99.90
16229;DHT22;8222;51.462;12.630;2023-06-10T09:41:05;27.30;99.90
16229;DHT22;8222;51.462;12.630;2023-06-10T09:43:42;27.40;99.90
16229;DHT22;8222;51.462;12.630;2023-06-10T09:46:20;27.50;99.90
16229;DHT22;8222;51.462;12.630;2023-06-10T09:49:20;27.70;99.90
16229;DHT22;8222;51.462;12.630;2023-06-10T09:51:58;27.30;99.90
16229;DHT22;8222;51.462;12.630;2023-06-10T09:54:24;27.30;99.90
16229;DHT22;8222;51.462;12.630;2023-06-10T10:00:14;27.60;99.90
16229;DHT22;8222;51.462;12.630;2023-06-10T10:03:10;27.70;99.90
16229;DHT22;8222;51.462;12.630;2023-06-10T10:05:58;27.80;99.90
16229;DHT22;8222;51.462;12.630;2023-06-10T10:09:06;27.90;99.90
16229;DHT22;8222;51.462;12.630;2023-06-10T10:11:48;28.10;99.90
16229;DHT22;8222;51.462;12.630;2023-06-10T10:21:05;29.00;99.90
16229;DHT22;8222;51.462;12.630;2023-06-10T10:24:09;29.30;99.90
16229;DHT22;8222;51.462;12.630;2023-06-10T10:30:20;28.70;99.90
16229;DHT22;8222;51.462;12.630;2023-06-10T10:33:33;28.50;99.90
16229;DHT22;8222;51.462;12.630;2023-06-10T10:39:44;28.40;99.90
16229;DHT22;8222;51.462;12.630;2023-06-10T10:49:06;28.60;99.90
16229;DHT22;8222;51.462;12.630;2023-06-10T11:07:57;29.10;99.90
16229;DHT22;8222;51.462;12.630;2023-06-10T11:10:54;29.50;99.90
16229;DHT22;8222;51.462;12.630;2023-06-10T11:14:36;30.00;99.10
16229;DHT22;8222;51.462;12.630;2023-06-10T11:21:16;29.70;92.00
16229;DHT22;8222;51.462;12.630;2023-06-10T11:35:24;31.20;87.70
16229;DHT22;8222;51.462;12.630;2023-06-10T11:38:25;31.60;84.20
16229;DHT22;8222;51.462;12.630;2023-06-10T11:55:08;31.90;73.30
16229;DHT22;8222;51.462;12.630;2023-06-10T12:08:26;29.60;64.00
16229;DHT22;8222;51.462;12.630;2023-06-10T12:17:06;29.70;60.60
16229;DHT22;8222;51.462;12.630;2023-06-10T12:23:30;29.50;63.40
16229;DHT22;8222;51.462;12.630;2023-06-10T12:26:17;29.40;65.20
16229;DHT22;8222;51.462;12.630;2023-06-10T12:29:25;29.50;67.10
16229;DHT22;8222;51.462;12.630;2023-06-10T12:32:08;29.60;70.00
16229;DHT22;8222;51.462;12.630;2023-06-10T12:35:13;29.60;72.20
16229;DHT22;8222;51.462;12.630;2023-06-10T12:38:11;29.60;71.80
16229;DHT22;8222;51.462;12.630;2023-06-10T12:41:09;29.70;72.60
16229;DHT22;8222;51.462;12.630;2023-06-10T12:43:54;30.00;75.60
16229;DHT22;8222;51.462;12.630;2023-06-10T12:46:38;30.00;74.10
16229;DHT22;8222;51.462;12.630;2023-06-10T12:49:35;30.30;76.20
16229;DHT22;8222;51.462;12.630;2023-06-10T12:52:57;30.70;76.70
16229;DHT22;8222;51.462;12.630;2023-06-10T12:56:01;31.00;76.80
16229;DHT22;8222;51.462;12.630;2023-06-10T13:08:50;30.40;77.60
16229;DHT22;8222;51.462;12.630;2023-06-10T13:12:14;29.80;79.20
16229;DHT22;8222;51.462;12.630;2023-06-10T13:14:51;29.20;79.40
16229;DHT22;8222;51.462;12.630;2023-06-10T13:17:24;28.90;83.10
16229;DHT22;8222;51.462;12.630;2023-06-10T13:19:53;28.40;83.90
16229;DHT22;8222;51.462;12.630;2023-06-10T13:22:23;28.30;86.30
16229;DHT22;8222;51.462;12.630;2023-06-10T13:25:15;28.30;89.60
16229;DHT22;8222;51.462;12.630;2023-06-10T13:27:48;28.00;90.40
16229;DHT22;8222;51.462;12.630;2023-06-10T13:30:17;27.90;90.60
16229;DHT22;8222;51.462;12.630;2023-06-10T13:32:45;27.70;89.80
16229;DHT22;8222;51.462;12.630;2023-06-10T13:35:11;27.70;91.50
16229;DHT22;8222;51.462;12.630;2023-06-10T13:37:39;27.60;89.90
16229;DHT22;8222;51.462;12.630;2023-06-10T13:40:10;27.70;90.00
16229;DHT22;8222;51.462;12.630;2023-06-10T13:42:41;27.70;90.70
16229;DHT22;8222;51.462;12.630;2023-06-10T13:45:10;27.80;90.80
16229;DHT22;8222;51.462;12.630;2023-06-10T13:47:38;27.90;90.70
16229;DHT22;8222;51.462;12.630;2023-06-10T13:50:12;27.70;90.60
16229;DHT22;8222;51.462;12.630;2023-06-10T13:52:45;28.10;90.10
16229;DHT22;8222;51.462;12.630;2023-06-10T13:55:15;28.20;88.50
16229;DHT22;8222;51.462;12.630;2023-06-10T13:57:45;28.30;87.40
16229;DHT22;8222;51.462;12.630;2023-06-10T14:00:17;28.60;84.80
16229;DHT22;8222;51.462;12.630;2023-06-10T14:02:45;28.90;85.00
16229;DHT22;8222;51.462;12.630;2023-06-10T14:05:18;28.80;82.90
16229;DHT22;8222;51.462;12.630;2023-06-10T14:07:50;28.80;84.30
16229;DHT22;8222;51.462;12.630;2023-06-10T14:10:19;28.70;84.90
16229;DHT22;8222;51.462;12.630;2023-06-10T14:12:53;28.60;84.80
16229;DHT22;8222;51.462;12.630;2023-06-10T14:15:27;28.50;86.40
16229;DHT22;8222;51.462;12.630;2023-06-10T14:18:01;29.00;88.30
16229;DHT22;8222;51.462;12.630;2023-06-10T14:20:30;29.30;82.20
16229;DHT22;8222;51.462;12.630;2023-06-10T14:22:59;29.30;78.50
16229;DHT22;8222;51.462;12.630;2023-06-10T14:25:30;29.70;79.10
16229;DHT22;8222;51.462;12.630;2023-06-10T14:27:56;29.80;76.20
16229;DHT22;8222;51.462;12.630;2023-06-10T14:30:34;29.70;73.50
16229;DHT22;8222;51.462;12.630;2023-06-10T14:33:10;29.50;73.20
16229;DHT22;8222;51.462;12.630;2023-06-10T14:35:45;29.10;79.40
16229;DHT22;8222;51.462;12.630;2023-06-10T14:41:07;28.30;85.20
16229;DHT22;8222;51.462;12.630;2023-06-10T14:44:06;28.10;84.70
16229;DHT22;8222;51.462;12.630;2023-06-10T14:46:44;27.90;88.00
16229;DHT22;8222;51.462;12.630;2023-06-10T14:49:18;27.80;87.90
16229;DHT22;8222;51.462;12.630;2023-06-10T14:52:05;27.90;87.40
16229;DHT22;8222;51.462;12.630;2023-06-10T14:54:57;28.20;84.40
16229;DHT22;8222;51.462;12.630;2023-06-10T14:57:25;28.60;83.60
16229;DHT22;8222;51.462;12.630;2023-06-10T15:00:14;28.90;83.00
16229;DHT22;8222;51.462;12.630;2023-06-10T15:03:14;29.30;80.40
16229;DHT22;8222;51.462;12.630;2023-06-10T15:09:05;29.60;78.80
16229;DHT22;8222;51.462;12.630;2023-06-10T15:15:35;29.60;80.00
16229;DHT22;8222;51.462;12.630;2023-06-10T15:22:10;29.40;84.40
16229;DHT22;8222;51.462;12.630;2023-06-10T15:25:43;29.40;86.00
16229;DHT22;8222;51.462;12.630;2023-06-10T15:28:52;29.40;89.00
16229;DHT22;8222;51.462;12.630;2023-06-10T15:35:29;30.40;81.40
16229;DHT22;8222;51.462;12.630;2023-06-10T15:38:57;30.40;81.10
16229;DHT22;8222;51.462;12.630;2023-06-10T15:55:53;30.50;74.40
16229;DHT22;8222;51.462;12.630;2023-06-10T16:02:59;29.40;81.00
16229;DHT22;8222;51.462;12.630;2023-06-10T16:09:00;28.70;90.00
16229;DHT22;8222;51.462;12.630;2023-06-10T16:11:32;28.50;91.80
16229;DHT22;8222;51.462;12.630;2023-06-10T16:14:11;28.30;93.30
16229;DHT22;8222;51.462;12.630;2023-06-10T16:20:15;28.10;93.50
16229;DHT22;8222;51.462;12.630;2023-06-10T16:23:04;28.30;93.90
16229;DHT22;8222;51.462;12.630;2023-06-10T16:29:26;28.30;95.20
16229;DHT22;8222;51.462;12.630;2023-06-10T16:32:32;28.10;95.90
16229;DHT22;8222;51.462;12.630;2023-06-10T16:35:30;27.90;97.20
16229;DHT22;8222;51.462;12.630;2023-06-10T16:38:24;27.80;97.60
16229;DHT22;8222;51.462;12.630;2023-06-10T16:41:07;27.90;97.80
16229;DHT22;8222;51.462;12.630;2023-06-10T16:43:44;28.40;97.30
16229;DHT22;8222;51.462;12.630;2023-06-10T16:46:24;28.20;97.50
16229;DHT22;8222;51.462;12.630;2023-06-10T16:56:17;28.40;99.90
16229;DHT22;8222;51.462;12.630;2023-06-10T16:58:56;29.50;96.40
16229;DHT22;8222;51.462;12.630;2023-06-10T17:01:29;29.60;96.00
16229;DHT22;8222;51.462;12.630;2023-06-10T17:03:58;29.30;96.90
16229;DHT22;8222;51.462;12.630;2023-06-10T17:06:35;29.10;96.60
16229;DHT22;8222;51.462;12.630;2023-06-10T17:09:21;28.70;97.00
16229;DHT22;8222;51.462;12.630;2023-06-10T17:11:57;28.40;98.50
16229;DHT22;8222;51.462;12.630;2023-06-10T17:14:41;28.40;99.60
16229;DHT22;8222;51.462;12.630;2023-06-10T17:17:44;28.20;99.40
16229;DHT22;8222;51.462;12.630;2023-06-10T17:20:23;28.00;99.90
16229;DHT22;8222;51.462;12.630;2023-06-10T17:23:12;27.90;99.90
16229;DHT22;8222;51.462;12.630;2023-06-10T17:25:50;28.00;99.90
16229;DHT22;8222;51.462;12.630;2023-06-10T17:28:30;28.00;99.90
16229;DHT22;8222;51.462;12.630;2023-06-10T17:31:07;28.30;99.90
16229;DHT22;8222;51.462;12.630;2023-06-10T17:33:45;29.10;99.90
16229;DHT22;8222;51.462;12.630;2023-06-10T17:36:25;29.90;99.90
16229;DHT22;8222;51.462;12.630;2023-06-10T17:39:02;30.60;97.60
16229;DHT22;8222;51.462;12.630;2023-06-10T17:41:36;31.10;96.90
16229;DHT22;8222;51.462;12.630;2023-06-10T17:44:13;31.30;92.70
16229;DHT22;8222;51.462;12.630;2023-06-10T17:47:04;30.90;90.50
16229;DHT22;8222;51.462;12.630;2023-06-10T17:49:32;30.60;92.90
16229;DHT22;8222;51.462;12.630;2023-06-10T17:52:06;30.00;94.70
16229;DHT22;8222;51.462;12.630;2023-06-10T17:54:45;29.50;95.60
16229;DHT22;8222;51.462;12.630;2023-06-10T17:57:28;29.20;99.90
16229;DHT22;8222;51.462;12.630;2023-06-10T18:00:12;28.70;99.90
16229;DHT22;8222;51.462;12.630;2023-06-10T18:02:43;28.20;97.10
16229;DHT22;8222;51.462;12.630;2023-06-10T18:05:32;27.90;99.90
16229;DHT22;8222;51.462;12.630;2023-06-10T18:08:07;27.90;99.90
16229;DHT22;8222;51.462;12.630;2023-06-10T18:10:35;27.80;95.70
16229;DHT22;8222;51.462;12.630;2023-06-10T18:13:03;28.20;91.90
16229;DHT22;8222;51.462;12.630;2023-06-10T18:15:32;29.00;88.30
16229;DHT22;8222;51.462;12.630;2023-06-10T18:18:03;29.40;82.10
16229;DHT22;8222;51.462;12.630;2023-06-10T18:20:36;28.90;81.10
16229;DHT22;8222;51.462;12.630;2023-06-10T18:23:02;28.40;82.90
16229;DHT22;8222;51.462;12.630;2023-06-10T18:25:33;28.70;84.90
16229;DHT22;8222;51.462;12.630;2023-06-10T18:28:10;29.10;86.80
16229;DHT22;8222;51.462;12.630;2023-06-10T18:30:36;29.30;82.70
16229;DHT22;8222;51.462;12.630;2023-06-10T18:33:07;28.90;86.00
16229;DHT22;8222;51.462;12.630;2023-06-10T18:35:41;28.40;86.90
16229;DHT22;8222;51.462;12.630;2023-06-10T18:38:09;27.80;90.90
16229;DHT22;8222;51.462;12.630;2023-06-10T18:40:39;27.20;91.70
16229;DHT22;8222;51.462;12.630;2023-06-10T18:43:04;26.80;92.90
16229;DHT22;8222;51.462;12.630;2023-06-10T18:45:33;26.70;94.00
16229;DHT22;8222;51.462;12.630;2023-06-10T18:48:04;26.30;95.60
16229;DHT22;8222;51.462;12.630;2023-06-10T18:50:37;26.10;97.00
16229;DHT22;8222;51.462;12.630;2023-06-10T18:53:03;26.00;97.90